^^

Nearby METAR Reports

 

EGAC - Belfast Harbour, United Kingdom
Distance from station: W 8mi, 13km
Updated: 25/01/2020 20:50
Overcast
Overcast
 Wind from S
Wind: S 12 mph , 19 km/h
Temperature: 8°C
Wind Chill: 4°C
Dew Point: 5°C
Humidity: 82%
Barometer: 1006 hPa
Clouds: Overcast
Visibility: 6 miles , 10 km
Cloud details: Overcast 1372 m
2020/01/25 20:50 EGAC 252050Z AUTO 18010KT 9999 OVC045/// 08/05 Q1006
EGAA - Belfast/Aldergro, United Kingdom
Distance from station: W 22mi, 35km
Updated: 25/01/2020 20:50
Mostly cloudy
Mostly cloudy
 Wind from S
Wind: S 13 mph , 20 km/h
Temperature: 7°C
Wind Chill: 4°C
Dew Point: 5°C
Humidity: 87%
Barometer: 1006 hPa
Clouds: Mostly cloudy
Visibility: 6 miles , 10 km
Cloud details: Partly cloudy 914 m
Mostly cloudy 1219 m
2020/01/25 20:50 EGAA 252050Z 18011KT 9999 SCT030 BKN040 07/05 Q1006
 
EGNS - Isle Of Man/Rona, United Kingdom
Distance from station: SE 57mi, 91km
Updated: 25/01/2020 20:50
Overcast
Overcast
 Wind from S
Wind: S 20 mph , 31 km/h
Temperature: 9°C
Wind Chill: 5°C
Dew Point: 7°C
Humidity: 87%
Barometer: 1009 hPa
Clouds: Overcast
Visibility: 6 miles , 10 km
Cloud details: Few Clouds 244 m
Overcast 1280 m
2020/01/25 20:50 EGNS 252050Z 19017KT 9999 FEW008 OVC042 09/07 Q1009 TEMPO 8000 -SHRA BKN012
EGPK - Prestwick(Civ/Na, United Kingdom
Distance from station: NE 74mi, 119km
Updated: 25/01/2020 20:20
Mostly cloudy
Mostly cloudy
 Wind from S
Wind: S 18 mph , 30 km/h
Temperature: 8°C
Wind Chill: 4°C
Dew Point: 5°C
Humidity: 82%
Barometer: 1007 hPa
Clouds: Mostly cloudy
Visibility: 6 miles , 10 km
Cloud details: Partly cloudy 518 m
Mostly cloudy 1250 m
2020/01/25 20:20 EGPK 252020Z 17016KT 9999 SCT017 BKN041 08/05 Q1007
 
EIDW - Dublin Airport, Ireland
Distance from station: SSW 87mi, 141km
Updated: 25/01/2020 21:00
Mostly cloudy
Mostly cloudy
 Wind from S
Wind: S 14 mph , 22 km/h
Temperature: 8°C
Wind Chill: 4°C
Dew Point: 3°C
Humidity: 71%
Barometer: 1008 hPa
Clouds: Mostly cloudy
Visibility: 6 miles , 10 km
Cloud details: Few Clouds 610 m
Mostly cloudy 1219 m
2020/01/25 21:00 EIDW 252100Z 19012KT 160V220 9999 FEW020 BKN040 08/03 Q1008 NOSIG
EGPF - Glasgow Airport, United Kingdom
Distance from station: NNE 98mi, 158km
Updated: 25/01/2020 20:50
Overcast
Overcast
 Wind from SW
Wind: SW 7 mph , 11 km/h
Temperature: 7°C
Wind Chill: 5°C
Dew Point: 5°C
Humidity: 87%
Barometer: 1006 hPa
Clouds: Overcast
Visibility: 6 miles , 10 km
Cloud details: Mostly cloudy 549 m
Overcast 1311 m
2020/01/25 20:50 EGPF 252050Z AUTO 23006KT 9999 BKN018 OVC043 07/05 Q1006